createdAt,value
2022-09-11T00:01:29.167Z,100607.59
2022-09-11T00:03:56.504Z,100603.16
2022-09-11T00:06:29.862Z,100602.97
2022-09-11T00:09:01.819Z,100606.13
2022-09-11T00:11:40.437Z,100603.16
2022-09-11T00:14:10.238Z,100602.66
2022-09-11T00:16:41.206Z,100610.59
2022-09-11T00:19:16.076Z,100611.06
2022-09-11T00:21:42.966Z,100617.38
2022-09-11T00:24:10.331Z,100621.84
2022-09-11T00:26:42.305Z,100616.53
2022-09-11T00:29:10.251Z,100627.28
2022-09-11T00:31:37.229Z,100619.50
2022-09-11T00:34:04.177Z,100618.84
2022-09-11T00:36:31.551Z,100613.56
2022-09-11T00:38:59.823Z,100616.84
2022-09-11T00:41:31.289Z,100621.16
2022-09-11T00:44:03.734Z,100623.47
2022-09-11T00:46:49.587Z,100622.97
2022-09-11T00:49:44.990Z,100617.22
2022-09-11T00:52:34.241Z,100623.81
2022-09-11T00:55:16.496Z,100628.13
2022-09-11T00:57:50.012Z,100622.50
2022-09-11T01:00:17.127Z,100631.41
2022-09-11T01:02:48.596Z,100634.72
2022-09-11T01:05:19.133Z,100631.03
2022-09-11T01:07:47.992Z,100628.56
2022-09-11T01:10:14.951Z,100627.13
2022-09-11T01:13:40.592Z,100640.50
2022-09-11T01:16:20.634Z,100637.66
2022-09-11T01:18:58.688Z,100641.81
2022-09-11T01:22:13.771Z,100644.31
2022-09-11T01:25:09.008Z,100651.69
2022-09-11T01:27:45.193Z,100647.91
2022-09-11T01:30:41.319Z,100654.88
2022-09-11T01:34:18.671Z,100653.38
2022-09-11T01:37:15.081Z,100659.78
2022-09-11T01:39:51.743Z,100660.66
2022-09-11T01:42:22.301Z,100645.63
2022-09-11T01:44:57.332Z,100656.53
2022-09-11T01:47:25.827Z,100654.22
2022-09-11T01:50:03.012Z,100654.53
2022-09-11T01:52:37.007Z,100641.97
2022-09-11T01:55:30.155Z,100646.94
2022-09-11T01:58:06.912Z,100648.28
2022-09-11T02:00:36.686Z,100652.25
2022-09-11T02:03:14.609Z,100645.63
2022-09-11T02:05:56.223Z,100653.22
2022-09-11T02:08:50.752Z,100656.19
2022-09-11T02:11:21.337Z,100658.19
2022-09-11T02:14:15.955Z,100670.56
2022-09-11T02:16:52.481Z,100661.31
2022-09-11T02:19:29.960Z,100648.41
2022-09-11T02:21:59.831Z,100656.31
2022-09-11T02:24:28.005Z,100662.28
2022-09-11T02:27:01.774Z,100652.53
2022-09-11T02:29:28.605Z,100658.50
2022-09-11T02:31:56.101Z,100661.13
2022-09-11T02:34:33.433Z,100666.41
2022-09-11T02:37:03.224Z,100663.41
2022-09-11T02:39:48.828Z,100667.25
2022-09-11T02:42:35.275Z,100676.63
2022-09-11T02:45:15.888Z,100677.31
2022-09-11T02:48:06.044Z,100690.03
2022-09-11T02:50:53.316Z,100694.69
2022-09-11T02:53:46.444Z,100697.78
2022-09-11T02:56:26.418Z,100696.94
2022-09-11T02:59:05.319Z,100698.72
2022-09-11T03:01:47.540Z,100698.44
2022-09-11T03:04:15.427Z,100694.94
2022-09-11T03:06:43.083Z,100702.03
2022-09-11T03:09:10.720Z,100697.75
2022-09-11T03:11:45.409Z,100691.16
2022-09-11T03:14:17.011Z,100698.25
2022-09-11T03:16:43.863Z,100690.03
2022-09-11T03:19:11.670Z,100691.03
2022-09-11T03:21:38.801Z,100697.00
2022-09-11T03:24:06.318Z,100701.91
2022-09-11T03:26:33.523Z,100692.50
2022-09-11T03:29:00.396Z,100706.56
2022-09-11T03:31:28.334Z,100701.09
2022-09-11T03:33:55.742Z,100704.69
2022-09-11T03:36:22.736Z,100700.56
2022-09-11T03:38:49.897Z,100710.28
2022-09-11T03:41:17.069Z,100701.72
2022-09-11T03:43:44.060Z,100705.34
2022-09-11T03:46:11.118Z,100714.13
2022-09-11T03:48:37.912Z,100716.09
2022-09-11T03:51:05.812Z,100715.78
2022-09-11T03:53:33.199Z,100719.75
2022-09-11T03:56:01.033Z,100711.34
2022-09-11T03:58:27.918Z,100721.56
2022-09-11T04:00:56.177Z,100723.25
2022-09-11T04:03:23.114Z,100725.66
2022-09-11T04:06:00.328Z,100727.13
2022-09-11T04:08:27.646Z,100735.06
2022-09-11T04:11:02.873Z,100745.34
2022-09-11T04:13:32.638Z,100741.84
2022-09-11T04:16:09.531Z,100742.66
2022-09-11T04:18:40.007Z,100750.53
2022-09-11T04:21:09.607Z,100748.59
2022-09-11T04:23:36.688Z,100743.81
2022-09-11T04:26:04.319Z,100751.25
2022-09-11T04:28:31.951Z,100750.16
2022-09-11T04:31:04.913Z,100758.31
2022-09-11T04:33:31.839Z,100756.09
2022-09-11T04:36:04.168Z,100752.81
2022-09-11T04:38:30.986Z,100751.13
2022-09-11T04:41:01.773Z,100749.69
2022-09-11T04:43:31.529Z,100750.25
2022-09-11T04:46:14.204Z,100754.00
2022-09-11T04:49:04.779Z,100748.84
2022-09-11T04:51:35.051Z,100750.91
2022-09-11T04:54:02.683Z,100749.94
2022-09-11T04:56:37.667Z,100739.38
2022-09-11T04:59:13.137Z,100755.94
2022-09-11T05:01:40.434Z,100761.84
2022-09-11T05:04:08.590Z,100763.31
2022-09-11T05:06:37.886Z,100768.81
2022-09-11T05:09:08.931Z,100768.94
2022-09-11T05:11:36.641Z,100768.16
2022-09-11T05:14:03.510Z,100777.78
2022-09-11T05:16:34.311Z,100782.72
2022-09-11T05:19:03.743Z,100785.94
2022-09-11T05:21:31.920Z,100785.91
2022-09-11T05:24:01.131Z,100799.03
2022-09-11T05:26:34.808Z,100792.41
2022-09-11T05:29:09.061Z,100803.94
2022-09-11T05:31:37.203Z,100803.03
2022-09-11T05:34:05.257Z,100808.09
2022-09-11T05:36:32.143Z,100805.47
2022-09-11T05:38:59.550Z,100806.00
2022-09-11T05:41:27.032Z,100811.50
2022-09-11T05:43:54.722Z,100812.47
2022-09-11T05:46:22.326Z,100810.69
2022-09-11T05:48:49.171Z,100819.19
2022-09-11T05:51:21.476Z,100814.59
2022-09-11T05:53:52.730Z,100824.38
2022-09-11T05:56:23.117Z,100827.56
2022-09-11T05:58:54.812Z,100838.91
2022-09-11T06:01:25.790Z,100830.31
2022-09-11T06:03:53.443Z,100837.78
2022-09-11T06:06:23.141Z,100842.91
2022-09-11T06:08:52.275Z,100832.78
2022-09-11T06:11:21.172Z,100851.97
2022-09-11T06:13:49.027Z,100848.34
2022-09-11T06:16:21.635Z,100865.63
2022-09-11T06:18:50.339Z,100873.44
2022-09-11T06:21:20.788Z,100865.72
2022-09-11T06:23:49.772Z,100879.84
2022-09-11T06:26:21.271Z,100872.91
2022-09-11T06:28:48.674Z,100871.78
2022-09-11T06:31:19.101Z,100868.75
2022-09-11T06:33:47.112Z,100871.44
2022-09-11T06:36:19.897Z,100875.81
2022-09-11T06:38:50.571Z,100876.88
2022-09-11T06:41:17.541Z,100876.50
2022-09-11T06:43:44.935Z,100873.97
2022-09-11T06:46:15.517Z,100878.22
2022-09-11T06:48:48.243Z,100872.44
2022-09-11T06:51:18.761Z,100883.31
2022-09-11T06:53:48.646Z,100882.25
2022-09-11T06:56:18.488Z,100881.38
2022-09-11T06:58:46.000Z,100887.09
2022-09-11T07:01:18.679Z,100883.41
2022-09-11T07:03:50.889Z,100885.13
2022-09-11T07:06:21.055Z,100884.22
2022-09-11T07:09:00.815Z,100874.38
2022-09-11T07:11:32.752Z,100881.44
2022-09-11T07:14:01.464Z,100874.34
2022-09-11T07:16:28.365Z,100869.59
2022-09-11T07:18:55.569Z,100871.44
2022-09-11T07:21:25.643Z,100873.72
2022-09-11T07:23:56.266Z,100876.28
2022-09-11T07:26:26.210Z,100880.34
2022-09-11T07:28:55.903Z,100874.56
2022-09-11T07:31:29.332Z,100865.91
2022-09-11T07:33:57.125Z,100869.63
2022-09-11T07:36:30.422Z,100867.88
2022-09-11T07:39:01.465Z,100869.09
2022-09-11T07:41:28.949Z,100869.78
2022-09-11T07:44:00.543Z,100875.59
2022-09-11T07:46:28.926Z,100876.66
2022-09-11T07:48:56.022Z,100887.56
2022-09-11T07:51:23.280Z,100879.50
2022-09-11T07:53:52.468Z,100880.28
2022-09-11T07:56:23.826Z,100888.56
2022-09-11T07:58:52.346Z,100890.44
2022-09-11T08:01:31.141Z,100894.63
2022-09-11T08:04:02.198Z,100902.59
2022-09-11T08:06:32.229Z,100900.03
2022-09-11T08:09:14.982Z,100896.91
2022-09-11T08:11:48.379Z,100899.59
2022-09-11T08:14:17.534Z,100900.44
2022-09-11T08:16:45.133Z,100893.75
2022-09-11T08:19:18.848Z,100900.06
2022-09-11T08:21:49.763Z,100900.28
2022-09-11T08:24:17.781Z,100897.78
2022-09-11T08:26:48.714Z,100894.81
2022-09-11T08:29:16.216Z,100901.38
2022-09-11T08:31:43.076Z,100906.22
2022-09-11T08:34:10.618Z,100901.16
2022-09-11T08:36:37.857Z,100907.47
2022-09-11T08:39:05.332Z,100910.75
2022-09-11T08:42:00.321Z,100926.16
2022-09-11T08:44:49.321Z,100927.03
2022-09-11T08:47:24.314Z,100928.13
2022-09-11T08:50:08.484Z,100927.47
2022-09-11T08:52:37.484Z,100931.66
2022-09-11T08:55:06.532Z,100936.09
2022-09-11T08:58:03.297Z,100933.00
2022-09-11T09:00:54.608Z,100939.75
2022-09-11T09:03:45.673Z,100929.75
2022-09-11T09:06:28.390Z,100929.28
2022-09-11T09:09:29.757Z,100922.94
2022-09-11T09:12:47.665Z,100920.03
2022-09-11T09:15:43.111Z,100911.66
2022-09-11T09:18:23.183Z,100915.78
2022-09-11T09:21:36.231Z,100918.88
2022-09-11T09:24:19.108Z,100927.03
2022-09-11T09:26:56.147Z,100931.63
2022-09-11T09:29:30.880Z,100927.03
2022-09-11T09:32:07.428Z,100928.16
2022-09-11T09:34:38.613Z,100925.00
2022-09-11T09:37:15.103Z,100926.25
2022-09-11T09:39:43.146Z,100929.38
2022-09-11T09:42:24.481Z,100926.69
2022-09-11T09:45:19.352Z,100925.84
2022-09-11T09:47:49.028Z,100919.16
2022-09-11T09:50:25.839Z,100931.38
2022-09-11T09:53:18.127Z,100929.84
2022-09-11T09:55:47.481Z,100936.94
2022-09-11T09:58:15.022Z,100936.34
2022-09-11T10:00:42.381Z,100942.94
2022-09-11T10:03:20.855Z,100932.44
2022-09-11T10:05:50.485Z,100932.47
2022-09-11T10:08:34.542Z,100945.97
2022-09-11T10:11:03.812Z,100939.22
2022-09-11T10:13:41.607Z,100932.00
2022-09-11T10:16:27.123Z,100939.69
2022-09-11T10:18:55.956Z,100932.72
2022-09-11T10:21:25.576Z,100928.56
2022-09-11T10:23:56.831Z,100928.78
2022-09-11T10:26:35.504Z,100921.34
2022-09-11T10:29:19.727Z,100912.16
2022-09-11T10:31:54.724Z,100913.44
2022-09-11T10:34:25.657Z,100911.50
2022-09-11T10:37:15.323Z,100901.53
2022-09-11T10:39:47.184Z,100898.03
2022-09-11T10:42:24.617Z,100884.03
2022-09-11T10:44:53.194Z,100890.19
2022-09-11T10:47:29.051Z,100883.00
2022-09-11T10:50:22.441Z,100891.16
2022-09-11T10:52:58.143Z,100889.03
2022-09-11T10:55:31.068Z,100888.25
2022-09-11T10:58:13.051Z,100888.13
2022-09-11T11:00:40.395Z,100887.53
2022-09-11T11:03:27.614Z,100885.00
2022-09-11T11:06:07.074Z,100886.06
2022-09-11T11:09:14.290Z,100884.06
2022-09-11T11:12:08.021Z,100892.00
2022-09-11T11:14:59.493Z,100886.34
2022-09-11T11:17:42.074Z,100885.50
2022-09-11T11:20:26.506Z,100889.16
2022-09-11T11:23:21.309Z,100887.78
2022-09-11T11:26:02.244Z,100882.19
2022-09-11T11:28:31.772Z,100882.22
2022-09-11T11:31:23.046Z,100883.91
2022-09-11T11:34:20.508Z,100886.47
2022-09-11T11:36:54.832Z,100877.53
2022-09-11T11:40:03.216Z,100878.34
2022-09-11T11:42:46.598Z,100884.50
2022-09-11T11:45:32.920Z,100882.69
2022-09-11T11:48:12.608Z,100889.69
2022-09-11T11:50:51.426Z,100888.66
2022-09-11T11:53:27.452Z,100885.13
2022-09-11T11:56:23.324Z,100886.44
2022-09-11T11:59:01.412Z,100887.88
2022-09-11T12:02:09.240Z,100888.94
2022-09-11T12:04:44.839Z,100887.94
2022-09-11T12:07:48.284Z,100883.53
2022-09-11T12:10:31.121Z,100889.09
2022-09-11T12:13:05.620Z,100887.69
2022-09-11T12:15:38.243Z,100888.88
2022-09-11T12:18:24.163Z,100893.13
2022-09-11T12:20:51.365Z,100888.41
2022-09-11T12:23:42.586Z,100891.91
2022-09-11T12:26:09.318Z,100888.03
2022-09-11T12:28:37.881Z,100887.66
2022-09-11T12:31:11.644Z,100888.50
2022-09-11T12:33:41.629Z,100883.81
2022-09-11T12:36:33.294Z,100882.38
2022-09-11T12:39:24.816Z,100872.75
2022-09-11T12:41:51.944Z,100873.69
2022-09-11T12:44:52.942Z,100868.94
2022-09-11T12:47:39.752Z,100864.47
2022-09-11T12:50:22.057Z,100869.84
2022-09-11T12:52:54.866Z,100877.34
2022-09-11T12:55:43.222Z,100866.28
2022-09-11T12:58:19.079Z,100871.44
2022-09-11T13:00:49.562Z,100874.56
2022-09-11T13:03:22.194Z,100872.50
2022-09-11T13:06:00.473Z,100866.31
2022-09-11T13:08:37.206Z,100866.53
2022-09-11T13:11:39.336Z,100858.75
2022-09-11T13:14:28.805Z,100861.13
2022-09-11T13:16:57.641Z,100856.91
2022-09-11T13:19:33.962Z,100848.34
2022-09-11T13:22:00.759Z,100855.38
2022-09-11T13:24:34.106Z,100852.72
2022-09-11T13:27:09.870Z,100849.88
2022-09-11T13:29:40.078Z,100840.31
2022-09-11T13:32:15.550Z,100843.13
2022-09-11T13:34:50.312Z,100850.88
2022-09-11T13:37:42.027Z,100848.41
2022-09-11T13:40:38.182Z,100836.91
2022-09-11T13:43:05.145Z,100836.31
2022-09-11T13:45:32.096Z,100841.38
2022-09-11T13:47:59.341Z,100830.88
2022-09-11T13:50:26.291Z,100838.44
2022-09-11T13:52:54.501Z,100842.22
2022-09-11T13:55:27.077Z,100841.03
2022-09-11T13:58:02.007Z,100830.47
2022-09-11T14:00:47.082Z,100838.00
2022-09-11T14:03:31.482Z,100829.84
2022-09-11T14:06:04.142Z,100827.63
2022-09-11T14:08:38.480Z,100825.53
2022-09-11T14:11:11.734Z,100820.41
2022-09-11T14:14:06.922Z,100820.09
2022-09-11T14:16:38.507Z,100819.72
2022-09-11T14:19:21.987Z,100812.94
2022-09-11T14:21:51.285Z,100811.00
2022-09-11T14:24:35.920Z,100808.19
2022-09-11T14:27:25.191Z,100792.56
2022-09-11T14:29:55.557Z,100801.44
2022-09-11T14:32:33.674Z,100798.06
2022-09-11T14:35:07.227Z,100792.50
2022-09-11T14:37:40.176Z,100791.38
2022-09-11T14:40:15.316Z,100781.50
2022-09-11T14:42:43.890Z,100780.69
2022-09-11T14:45:26.043Z,100788.38
2022-09-11T14:47:53.373Z,100778.56
2022-09-11T14:50:21.195Z,100782.53
2022-09-11T14:52:48.112Z,100776.38
2022-09-11T14:55:18.218Z,100785.44
2022-09-11T14:57:46.721Z,100784.31
2022-09-11T15:00:17.586Z,100786.13
2022-09-11T15:02:44.773Z,100790.63
2022-09-11T15:05:19.036Z,100788.91
2022-09-11T15:07:45.883Z,100787.94
2022-09-11T15:10:14.035Z,100786.66
2022-09-11T15:12:41.127Z,100781.13
2022-09-11T15:15:08.907Z,100782.16
2022-09-11T15:17:39.327Z,100777.97
2022-09-11T15:20:11.773Z,100778.88
2022-09-11T15:22:39.711Z,100776.81
2022-09-11T15:25:07.429Z,100773.81
2022-09-11T15:27:34.485Z,100763.25
2022-09-11T15:30:01.332Z,100764.66
2022-09-11T15:32:28.576Z,100767.09
2022-09-11T15:34:55.533Z,100763.41
2022-09-11T15:37:23.612Z,100771.63
2022-09-11T15:39:51.096Z,100761.25
2022-09-11T15:42:18.598Z,100769.28
2022-09-11T15:44:46.233Z,100763.31
2022-09-11T15:47:13.653Z,100768.66
2022-09-11T15:49:43.290Z,100768.97
2022-09-11T15:52:11.208Z,100766.31
2022-09-11T15:54:38.388Z,100763.16
2022-09-11T15:57:05.507Z,100759.94
2022-09-11T15:59:33.378Z,100752.59
2022-09-11T16:02:00.323Z,100753.69
2022-09-11T16:04:31.548Z,100750.97
2022-09-11T16:06:59.212Z,100748.78
2022-09-11T16:09:31.020Z,100747.94
2022-09-11T16:12:00.176Z,100751.81
2022-09-11T16:14:32.033Z,100758.09
2022-09-11T16:17:00.354Z,100755.03
2022-09-11T16:19:28.909Z,100753.81
2022-09-11T16:21:57.841Z,100754.84
2022-09-11T16:24:27.412Z,100747.25
2022-09-11T16:26:55.871Z,100746.94
2022-09-11T16:29:25.835Z,100747.09
2022-09-11T16:31:52.882Z,100746.69
2022-09-11T16:34:19.675Z,100749.59
2022-09-11T16:36:46.673Z,100747.06
2022-09-11T16:39:18.944Z,100749.16
2022-09-11T16:41:46.195Z,100753.84
2022-09-11T16:44:18.570Z,100755.13
2022-09-11T16:46:45.926Z,100747.28
2022-09-11T16:49:16.961Z,100752.06
2022-09-11T16:51:47.265Z,100753.47
2022-09-11T16:54:14.826Z,100753.06
2022-09-11T16:56:45.934Z,100747.72
2022-09-11T16:59:13.115Z,100755.94
2022-09-11T17:01:41.117Z,100763.41
2022-09-11T17:04:07.978Z,100758.00
2022-09-11T17:06:35.008Z,100748.63
2022-09-11T17:09:04.013Z,100755.13
2022-09-11T17:11:33.212Z,100760.47
2022-09-11T17:14:02.053Z,100749.00
2022-09-11T17:16:32.814Z,100753.09
2022-09-11T17:19:01.478Z,100750.50
2022-09-11T17:21:35.590Z,100754.00
2022-09-11T17:24:06.550Z,100746.44
2022-09-11T17:26:34.054Z,100752.22
2022-09-11T17:29:03.308Z,100748.34
2022-09-11T17:31:30.963Z,100742.56
2022-09-11T17:33:57.846Z,100746.25
2022-09-11T17:36:24.772Z,100739.00
2022-09-11T17:38:55.720Z,100750.28
2022-09-11T17:41:22.605Z,100748.16
2022-09-11T17:43:49.634Z,100752.31
2022-09-11T17:46:19.824Z,100755.16
2022-09-11T17:48:47.117Z,100755.53
2022-09-11T17:51:24.866Z,100746.22
2022-09-11T17:53:56.170Z,100747.97
2022-09-11T17:56:30.830Z,100756.78
2022-09-11T17:58:59.859Z,100756.88
2022-09-11T18:01:31.282Z,100749.00
2022-09-11T18:03:59.299Z,100747.56
2022-09-11T18:06:34.505Z,100750.31
2022-09-11T18:09:19.428Z,100751.09
2022-09-11T18:11:49.727Z,100759.59
2022-09-11T18:14:18.776Z,100759.41
2022-09-11T18:16:47.764Z,100761.44
2022-09-11T18:19:17.780Z,100759.59
2022-09-11T18:21:49.258Z,100758.03
2022-09-11T18:24:21.144Z,100768.88
2022-09-11T18:26:57.244Z,100770.50
2022-09-11T18:29:26.977Z,100768.84
2022-09-11T18:31:54.517Z,100770.19
2022-09-11T18:34:25.475Z,100771.69
2022-09-11T18:36:52.607Z,100777.72
2022-09-11T18:39:21.163Z,100771.97
2022-09-11T18:41:49.285Z,100764.28
2022-09-11T18:44:20.059Z,100769.13
2022-09-11T18:46:47.984Z,100764.81
2022-09-11T18:49:15.964Z,100764.34
2022-09-11T18:51:42.917Z,100765.16
2022-09-11T18:54:19.245Z,100769.94
2022-09-11T18:56:46.312Z,100765.63
2022-09-11T18:59:14.161Z,100769.44
2022-09-11T19:01:42.142Z,100767.41
2022-09-11T19:04:11.694Z,100779.00
2022-09-11T19:06:39.328Z,100783.63
2022-09-11T19:09:10.245Z,100779.34
2022-09-11T19:11:37.620Z,100779.72
2022-09-11T19:14:10.906Z,100770.94
2022-09-11T19:16:39.117Z,100773.41
2022-09-11T19:19:09.422Z,100783.66
2022-09-11T19:21:38.226Z,100782.78
2022-09-11T19:24:06.599Z,100786.91
2022-09-11T19:26:38.707Z,100784.03
2022-09-11T19:29:08.538Z,100781.25
2022-09-11T19:31:36.567Z,100779.84
2022-09-11T19:34:03.625Z,100781.25
2022-09-11T19:36:34.236Z,100784.19
2022-09-11T19:39:01.783Z,100784.00
2022-09-11T19:41:33.662Z,100782.91
2022-09-11T19:44:05.883Z,100784.53
2022-09-11T19:46:34.689Z,100782.25
2022-09-11T19:49:05.545Z,100794.03
2022-09-11T19:51:40.802Z,100785.47
2022-09-11T19:54:09.282Z,100789.75
2022-09-11T19:56:37.938Z,100794.94
2022-09-11T19:59:06.243Z,100792.13
2022-09-11T20:01:33.300Z,100790.38
2022-09-11T20:04:00.937Z,100786.03
2022-09-11T20:06:32.028Z,100793.97
2022-09-11T20:09:20.221Z,100796.13
2022-09-11T20:11:47.207Z,100792.81
2022-09-11T20:14:14.009Z,100796.47
2022-09-11T20:16:40.934Z,100789.69
2022-09-11T20:19:09.251Z,100796.13
2022-09-11T20:21:36.366Z,100794.66
2022-09-11T20:24:07.212Z,100794.50
2022-09-11T20:26:35.160Z,100794.81
2022-09-11T20:29:08.835Z,100795.00
2022-09-11T20:31:46.386Z,100790.72
2022-09-11T20:34:17.794Z,100790.22
2022-09-11T20:36:45.137Z,100789.22
2022-09-11T20:39:13.653Z,100794.69
2022-09-11T20:41:40.754Z,100788.56
2022-09-11T20:44:07.775Z,100790.38
2022-09-11T20:46:34.737Z,100779.81
2022-09-11T20:49:02.981Z,100787.91
2022-09-11T20:51:30.267Z,100790.53
2022-09-11T20:53:57.344Z,100789.72
2022-09-11T20:56:24.235Z,100785.59
2022-09-11T20:58:51.904Z,100784.44
2022-09-11T21:01:25.035Z,100788.06
2022-09-11T21:03:55.547Z,100778.66
2022-09-11T21:06:26.430Z,100775.16
2022-09-11T21:08:59.571Z,100772.53
2022-09-11T21:11:28.433Z,100775.53
2022-09-11T21:13:55.477Z,100783.47
2022-09-11T21:16:22.843Z,100779.31
2022-09-11T21:18:56.479Z,100783.47
2022-09-11T21:21:25.359Z,100786.25
2022-09-11T21:24:01.885Z,100776.69
2022-09-11T21:26:30.741Z,100777.81
2022-09-11T21:29:00.053Z,100766.75
2022-09-11T21:31:27.623Z,100770.88
2022-09-11T21:33:54.498Z,100775.53
2022-09-11T21:36:21.461Z,100782.78
2022-09-11T21:38:48.446Z,100786.13
2022-09-11T21:41:15.628Z,100780.63
2022-09-11T21:43:42.468Z,100781.75
2022-09-11T21:46:10.117Z,100781.59
2022-09-11T21:48:40.183Z,100783.25
2022-09-11T21:51:11.815Z,100784.28
2022-09-11T21:53:40.679Z,100783.91
2022-09-11T21:56:16.281Z,100786.56
2022-09-11T21:58:43.092Z,100784.09
2022-09-11T22:01:10.027Z,100786.56
2022-09-11T22:03:36.902Z,100785.41
2022-09-11T22:06:10.197Z,100781.63
2022-09-11T22:08:43.006Z,100771.84
2022-09-11T22:11:11.123Z,100773.66
2022-09-11T22:13:39.438Z,100778.44
2022-09-11T22:16:11.623Z,100775.94
2022-09-11T22:18:40.139Z,100771.97
2022-09-11T22:21:08.394Z,100778.06
2022-09-11T22:23:35.414Z,100784.34
2022-09-11T22:26:06.493Z,100774.56
2022-09-11T22:28:33.906Z,100771.44
2022-09-11T22:31:00.824Z,100772.28
2022-09-11T22:33:27.658Z,100769.25
2022-09-11T22:35:54.472Z,100763.31
2022-09-11T22:38:21.356Z,100764.66
2022-09-11T22:40:57.250Z,100764.66
2022-09-11T22:43:24.142Z,100766.31
2022-09-11T22:45:52.343Z,100769.56
2022-09-11T22:48:19.305Z,100770.75
2022-09-11T22:50:46.142Z,100769.56
2022-09-11T22:53:12.979Z,100770.56
2022-09-11T22:55:44.808Z,100773.84
2022-09-11T22:58:12.253Z,100766.75
2022-09-11T23:00:39.894Z,100773.88
2022-09-11T23:03:06.800Z,100773.97
2022-09-11T23:05:52.472Z,100782.72
2022-09-11T23:08:19.491Z,100783.06
2022-09-11T23:10:47.224Z,100772.63
2022-09-11T23:13:14.589Z,100772.63
2022-09-11T23:15:41.516Z,100770.19
2022-09-11T23:18:09.096Z,100779.72
2022-09-11T23:20:35.881Z,100773.41
2022-09-11T23:23:03.876Z,100767.44
2022-09-11T23:25:31.599Z,100765.34
2022-09-11T23:27:58.368Z,100767.75
2022-09-11T23:30:25.285Z,100766.44
2022-09-11T23:32:53.602Z,100761.94
2022-09-11T23:35:20.518Z,100763.75
2022-09-11T23:37:47.309Z,100759.50
2022-09-11T23:40:14.203Z,100754.75
2022-09-11T23:42:41.127Z,100751.91
2022-09-11T23:45:09.161Z,100754.41
2022-09-11T23:47:36.029Z,100754.63
2022-09-11T23:50:02.918Z,100751.31
2022-09-11T23:52:29.970Z,100753.09
2022-09-11T23:54:56.762Z,100749.19
2022-09-11T23:57:23.568Z,100759.66
2022-09-11T23:59:50.443Z,100747.53
